sensor_id;sensor_type;location;lat;lon;timestamp;pressure;altitude;pressure_sealevel;temperature;humidity
7052;BME280;3567;52.444;13.556;2022-10-18T00:00:55;102060.13;;;13.29;100.00
7052;BME280;3567;52.444;13.556;2022-10-18T00:03:21;102061.56;;;13.32;100.00
7052;BME280;3567;52.444;13.556;2022-10-18T00:05:47;102054.91;;;13.34;100.00
7052;BME280;3567;52.444;13.556;2022-10-18T00:08:16;102060.72;;;13.38;100.00
7052;BME280;3567;52.444;13.556;2022-10-18T00:10:41;102053.25;;;13.40;100.00
7052;BME280;3567;52.444;13.556;2022-10-18T00:13:07;102060.66;;;13.45;100.00
7052;BME280;3567;52.444;13.556;2022-10-18T00:15:32;102058.38;;;13.48;100.00
7052;BME280;3567;52.444;13.556;2022-10-18T00:17:58;102058.75;;;13.52;100.00
7052;BME280;3567;52.444;13.556;2022-10-18T00:20:23;102061.84;;;13.55;100.00
7052;BME280;3567;52.444;13.556;2022-10-18T00:22:49;102069.50;;;13.58;100.00
7052;BME280;3567;52.444;13.556;2022-10-18T00:25:14;102067.41;;;13.60;100.00
7052;BME280;3567;52.444;13.556;2022-10-18T00:27:40;102065.94;;;13.65;100.00
7052;BME280;3567;52.444;13.556;2022-10-18T00:30:05;102069.00;;;13.68;100.00
7052;BME280;3567;52.444;13.556;2022-10-18T00:32:38;102064.25;;;13.70;100.00
7052;BME280;3567;52.444;13.556;2022-10-18T00:35:04;102072.72;;;13.74;100.00
7052;BME280;3567;52.444;13.556;2022-10-18T00:37:31;102084.94;;;13.76;100.00
7052;BME280;3567;52.444;13.556;2022-10-18T00:39:56;102082.25;;;13.76;100.00
7052;BME280;3567;52.444;13.556;2022-10-18T00:42:24;102075.81;;;13.77;100.00
7052;BME280;3567;52.444;13.556;2022-10-18T00:47:16;102078.28;;;13.79;100.00
7052;BME280;3567;52.444;13.556;2022-10-18T00:49:48;102079.94;;;13.80;100.00
7052;BME280;3567;52.444;13.556;2022-10-18T00:52:18;102079.94;;;13.80;100.00
7052;BME280;3567;52.444;13.556;2022-10-18T00:54:46;102083.47;;;13.80;100.00
7052;BME280;3567;52.444;13.556;2022-10-18T00:57:13;102080.53;;;13.82;100.00
7052;BME280;3567;52.444;13.556;2022-10-18T00:59:39;102081.38;;;13.82;100.00
7052;BME280;3567;52.444;13.556;2022-10-18T01:02:06;102086.53;;;13.84;100.00
7052;BME280;3567;52.444;13.556;2022-10-18T01:04:31;102083.22;;;13.82;100.00
7052;BME280;3567;52.444;13.556;2022-10-18T01:09:43;102088.03;;;13.80;100.00
7052;BME280;3567;52.444;13.556;2022-10-18T01:12:20;102083.66;;;13.79;100.00
7052;BME280;3567;52.444;13.556;2022-10-18T01:29:47;102087.16;;;13.86;100.00
7052;BME280;3567;52.444;13.556;2022-10-18T01:32:18;102087.75;;;13.88;100.00
7052;BME280;3567;52.444;13.556;2022-10-18T01:34:46;102087.31;;;13.91;100.00
7052;BME280;3567;52.444;13.556;2022-10-18T01:37:16;102077.97;;;13.94;100.00
7052;BME280;3567;52.444;13.556;2022-10-18T01:39:45;102073.22;;;13.96;100.00
7052;BME280;3567;52.444;13.556;2022-10-18T01:42:13;102070.06;;;13.99;100.00
7052;BME280;3567;52.444;13.556;2022-10-18T01:44:42;102072.34;;;14.02;100.00
7052;BME280;3567;52.444;13.556;2022-10-18T01:47:10;102064.03;;;14.03;100.00
7052;BME280;3567;52.444;13.556;2022-10-18T01:49:37;102062.97;;;14.04;100.00
7052;BME280;3567;52.444;13.556;2022-10-18T01:52:02;102066.50;;;14.05;100.00
7052;BME280;3567;52.444;13.556;2022-10-18T01:54:32;102070.63;;;14.07;100.00
7052;BME280;3567;52.444;13.556;2022-10-18T02:06:18;102075.31;;;14.44;100.00
7052;BME280;3567;52.444;13.556;2022-10-18T02:13:18;102071.41;;;15.01;100.00
7052;BME280;3567;52.444;13.556;2022-10-18T02:15:50;102065.38;;;15.17;100.00
7052;BME280;3567;52.444;13.556;2022-10-18T02:18:23;102065.31;;;15.24;100.00
7052;BME280;3567;52.444;13.556;2022-10-18T02:20:50;102065.69;;;15.28;100.00
7052;BME280;3567;52.444;13.556;2022-10-18T02:23:19;102068.47;;;15.39;100.00
7052;BME280;3567;52.444;13.556;2022-10-18T02:25:46;102076.59;;;15.51;100.00
7052;BME280;3567;52.444;13.556;2022-10-18T02:28:12;102077.88;;;15.67;100.00
7052;BME280;3567;52.444;13.556;2022-10-18T02:30:44;102080.03;;;15.77;100.00
7052;BME280;3567;52.444;13.556;2022-10-18T02:33:16;102079.69;;;15.85;100.00
7052;BME280;3567;52.444;13.556;2022-10-18T02:35:50;102076.03;;;15.91;100.00
7052;BME280;3567;52.444;13.556;2022-10-18T02:38:17;102086.75;;;15.97;100.00
7052;BME280;3567;52.444;13.556;2022-10-18T02:40:43;102083.59;;;16.01;100.00
7052;BME280;3567;52.444;13.556;2022-10-18T02:43:08;102085.00;;;16.03;100.00
7052;BME280;3567;52.444;13.556;2022-10-18T02:45:34;102087.47;;;16.05;100.00
7052;BME280;3567;52.444;13.556;2022-10-18T02:47:59;102095.34;;;16.06;100.00
7052;BME280;3567;52.444;13.556;2022-10-18T02:50:25;102099.94;;;16.06;100.00
7052;BME280;3567;52.444;13.556;2022-10-18T02:52:50;102092.41;;;16.08;100.00
7052;BME280;3567;52.444;13.556;2022-10-18T02:55:16;102091.13;;;16.10;100.00
7052;BME280;3567;52.444;13.556;2022-10-18T02:57:41;102097.13;;;16.12;100.00
7052;BME280;3567;52.444;13.556;2022-10-18T03:00:07;102104.78;;;16.15;100.00
7052;BME280;3567;52.444;13.556;2022-10-18T03:02:33;102106.78;;;16.20;100.00
7052;BME280;3567;52.444;13.556;2022-10-18T03:04:58;102104.44;;;16.23;100.00
7052;BME280;3567;52.444;13.556;2022-10-18T03:07:23;102102.53;;;16.24;100.00
7052;BME280;3567;52.444;13.556;2022-10-18T03:09:49;102103.97;;;16.27;100.00
7052;BME280;3567;52.444;13.556;2022-10-18T03:12:14;102112.09;;;16.27;100.00
7052;BME280;3567;52.444;13.556;2022-10-18T03:14:39;102118.31;;;16.27;100.00
7052;BME280;3567;52.444;13.556;2022-10-18T03:17:05;102111.03;;;16.28;100.00
7052;BME280;3567;52.444;13.556;2022-10-18T03:19:30;102122.41;;;16.30;100.00
7052;BME280;3567;52.444;13.556;2022-10-18T03:21:55;102123.59;;;16.34;100.00
7052;BME280;3567;52.444;13.556;2022-10-18T03:24:21;102118.81;;;16.36;100.00
7052;BME280;3567;52.444;13.556;2022-10-18T03:26:46;102124.56;;;16.39;100.00
7052;BME280;3567;52.444;13.556;2022-10-18T03:29:11;102120.44;;;16.37;100.00
7052;BME280;3567;52.444;13.556;2022-10-18T03:31:37;102121.16;;;16.32;100.00
7052;BME280;3567;52.444;13.556;2022-10-18T03:34:02;102120.78;;;16.29;100.00
7052;BME280;3567;52.444;13.556;2022-10-18T03:36:28;102113.97;;;16.26;100.00
7052;BME280;3567;52.444;13.556;2022-10-18T03:38:53;102112.78;;;16.22;100.00
7052;BME280;3567;52.444;13.556;2022-10-18T03:41:18;102115.72;;;16.20;100.00
7052;BME280;3567;52.444;13.556;2022-10-18T03:43:45;102120.53;;;16.18;100.00
7052;BME280;3567;52.444;13.556;2022-10-18T03:46:10;102107.47;;;16.15;100.00
7052;BME280;3567;52.444;13.556;2022-10-18T03:48:35;102111.25;;;16.14;100.00
7052;BME280;3567;52.444;13.556;2022-10-18T03:51:01;102122.88;;;16.15;100.00
7052;BME280;3567;52.444;13.556;2022-10-18T03:53:26;102112.06;;;16.15;100.00
7052;BME280;3567;52.444;13.556;2022-10-18T03:55:52;102108.53;;;16.14;100.00
7052;BME280;3567;52.444;13.556;2022-10-18T03:58:19;102119.34;;;16.14;100.00
7052;BME280;3567;52.444;13.556;2022-10-18T04:00:44;102122.28;;;16.13;100.00
7052;BME280;3567;52.444;13.556;2022-10-18T04:03:10;102120.88;;;16.10;100.00
7052;BME280;3567;52.444;13.556;2022-10-18T04:05:35;102120.25;;;16.08;100.00
7052;BME280;3567;52.444;13.556;2022-10-18T04:08:01;102124.03;;;16.07;100.00
7052;BME280;3567;52.444;13.556;2022-10-18T04:10:26;102119.69;;;16.06;100.00
7052;BME280;3567;52.444;13.556;2022-10-18T04:12:52;102124.50;;;16.04;100.00
7052;BME280;3567;52.444;13.556;2022-10-18T04:15:17;102126.59;;;16.02;100.00
7052;BME280;3567;52.444;13.556;2022-10-18T04:17:43;102127.06;;;15.99;100.00
7052;BME280;3567;52.444;13.556;2022-10-18T04:20:08;102129.16;;;15.97;100.00
7052;BME280;3567;52.444;13.556;2022-10-18T04:22:34;102121.53;;;15.94;100.00
7052;BME280;3567;52.444;13.556;2022-10-18T04:24:59;102125.50;;;15.91;100.00
7052;BME280;3567;52.444;13.556;2022-10-18T04:27:25;102118.69;;;15.89;100.00
7052;BME280;3567;52.444;13.556;2022-10-18T04:29:50;102127.03;;;15.87;100.00
7052;BME280;3567;52.444;13.556;2022-10-18T04:32:16;102123.97;;;15.84;100.00
7052;BME280;3567;52.444;13.556;2022-10-18T04:34:41;102123.97;;;15.84;100.00
7052;BME280;3567;52.444;13.556;2022-10-18T04:37:06;102119.81;;;15.81;100.00
7052;BME280;3567;52.444;13.556;2022-10-18T04:39:32;102110.31;;;15.79;100.00
7052;BME280;3567;52.444;13.556;2022-10-18T04:41:57;102105.84;;;15.73;100.00
7052;BME280;3567;52.444;13.556;2022-10-18T04:44:22;102109.47;;;15.66;100.00
7052;BME280;3567;52.444;13.556;2022-10-18T04:46:48;102116.34;;;15.62;100.00
7052;BME280;3567;52.444;13.556;2022-10-18T04:49:13;102118.41;;;15.60;100.00
7052;BME280;3567;52.444;13.556;2022-10-18T04:51:38;102119.94;;;15.56;100.00
7052;BME280;3567;52.444;13.556;2022-10-18T04:54:04;102118.16;;;15.50;100.00
7052;BME280;3567;52.444;13.556;2022-10-18T04:56:29;102111.78;;;15.44;100.00
7052;BME280;3567;52.444;13.556;2022-10-18T04:58:55;102106.47;;;15.38;100.00
7052;BME280;3567;52.444;13.556;2022-10-18T05:01:20;102112.09;;;15.36;100.00
7052;BME280;3567;52.444;13.556;2022-10-18T05:03:45;102107.97;;;15.34;100.00
7052;BME280;3567;52.444;13.556;2022-10-18T05:06:15;102125.22;;;15.33;100.00
7052;BME280;3567;52.444;13.556;2022-10-18T05:08:40;102123.56;;;15.32;100.00
7052;BME280;3567;52.444;13.556;2022-10-18T05:11:05;102120.44;;;15.35;100.00
7052;BME280;3567;52.444;13.556;2022-10-18T05:13:31;102107.97;;;15.34;100.00
7052;BME280;3567;52.444;13.556;2022-10-18T05:15:57;102111.72;;;15.33;100.00
7052;BME280;3567;52.444;13.556;2022-10-18T05:18:24;102109.63;;;15.35;100.00
7052;BME280;3567;52.444;13.556;2022-10-18T05:20:49;102109.63;;;15.35;100.00
7052;BME280;3567;52.444;13.556;2022-10-18T05:23:14;102096.34;;;15.33;100.00
7052;BME280;3567;52.444;13.556;2022-10-18T05:25:41;102103.03;;;15.31;100.00
7052;BME280;3567;52.444;13.556;2022-10-18T05:28:07;102107.59;;;15.30;100.00
7052;BME280;3567;52.444;13.556;2022-10-18T05:30:32;102107.22;;;15.27;100.00
7052;BME280;3567;52.444;13.556;2022-10-18T05:32:58;102102.28;;;15.24;100.00
7052;BME280;3567;52.444;13.556;2022-10-18T05:35:23;102103.78;;;15.19;100.00
7052;BME280;3567;52.444;13.556;2022-10-18T05:37:49;102108.56;;;15.17;100.00
7052;BME280;3567;52.444;13.556;2022-10-18T05:40:14;102106.09;;;15.16;100.00
7052;BME280;3567;52.444;13.556;2022-10-18T05:42:40;102095.53;;;15.14;100.00
7052;BME280;3567;52.444;13.556;2022-10-18T05:45:05;102093.91;;;15.13;100.00
7052;BME280;3567;52.444;13.556;2022-10-18T05:47:31;102097.63;;;15.12;100.00
7052;BME280;3567;52.444;13.556;2022-10-18T05:49:56;102105.97;;;15.11;100.00
7052;BME280;3567;52.444;13.556;2022-10-18T05:52:21;102104.31;;;15.10;100.00
7052;BME280;3567;52.444;13.556;2022-10-18T05:54:47;102107.00;;;15.10;100.00
7052;BME280;3567;52.444;13.556;2022-10-18T05:57:12;102115.94;;;15.10;100.00
7052;BME280;3567;52.444;13.556;2022-10-18T05:59:37;102114.28;;;15.09;100.00
7052;BME280;3567;52.444;13.556;2022-10-18T06:02:03;102124.84;;;15.11;100.00
7052;BME280;3567;52.444;13.556;2022-10-18T06:04:28;102124.03;;;15.10;100.00
7052;BME280;3567;52.444;13.556;2022-10-18T06:06:54;102128.38;;;15.11;100.00
7052;BME280;3567;52.444;13.556;2022-10-18T06:09:20;102125.66;;;15.11;100.00
7052;BME280;3567;52.444;13.556;2022-10-18T06:11:45;102127.31;;;15.12;100.00
7052;BME280;3567;52.444;13.556;2022-10-18T06:14:11;102114.88;;;15.11;100.00
7052;BME280;3567;52.444;13.556;2022-10-18T06:16:36;102114.88;;;15.11;100.00
7052;BME280;3567;52.444;13.556;2022-10-18T06:19:02;102114.88;;;15.11;100.00
7052;BME280;3567;52.444;13.556;2022-10-18T06:21:27;102114.88;;;15.11;100.00
7052;BME280;3567;52.444;13.556;2022-10-18T06:23:54;102112.19;;;15.11;100.00
7052;BME280;3567;52.444;13.556;2022-10-18T06:26:20;102110.75;;;15.09;100.00
7052;BME280;3567;52.444;13.556;2022-10-18T06:28:46;102099.59;;;15.05;100.00
7052;BME280;3567;52.444;13.556;2022-10-18T06:31:13;102091.09;;;15.02;100.00
7052;BME280;3567;52.444;13.556;2022-10-18T06:33:39;102081.38;;;15.01;100.00
7052;BME280;3567;52.444;13.556;2022-10-18T06:36:06;102091.97;;;15.02;100.00
7052;BME280;3567;52.444;13.556;2022-10-18T06:38:33;102107.69;;;15.05;100.00
7052;BME280;3567;52.444;13.556;2022-10-18T06:40:59;102110.75;;;15.09;100.00
7052;BME280;3567;52.444;13.556;2022-10-18T06:43:25;102112.19;;;15.11;100.00
7052;BME280;3567;52.444;13.556;2022-10-18T06:45:51;102108.22;;;15.14;100.00
7052;BME280;3567;52.444;13.556;2022-10-18T06:48:17;102104.47;;;15.15;100.00
7052;BME280;3567;52.444;13.556;2022-10-18T06:50:50;102097.78;;;15.17;100.00
7052;BME280;3567;52.444;13.556;2022-10-18T06:53:15;102104.84;;;15.18;100.00
7052;BME280;3567;52.444;13.556;2022-10-18T06:55:41;102111.88;;;15.19;100.00
7052;BME280;3567;52.444;13.556;2022-10-18T06:58:06;102112.03;;;15.25;100.00
7052;BME280;3567;52.444;13.556;2022-10-18T07:00:31;102118.84;;;15.27;100.00
7052;BME280;3567;52.444;13.556;2022-10-18T07:02:57;102118.16;;;15.32;100.00
7052;BME280;3567;52.444;13.556;2022-10-18T07:05:22;102107.97;;;15.34;100.00
7052;BME280;3567;52.444;13.556;2022-10-18T07:07:47;102102.94;;;15.37;100.00
7052;BME280;3567;52.444;13.556;2022-10-18T07:10:13;102110.22;;;15.37;100.00
7052;BME280;3567;52.444;13.556;2022-10-18T07:12:38;102112.91;;;15.37;100.00
7052;BME280;3567;52.444;13.556;2022-10-18T07:15:04;102117.25;;;15.38;100.00
7052;BME280;3567;52.444;13.556;2022-10-18T07:17:29;102123.72;;;15.37;100.00
7052;BME280;3567;52.444;13.556;2022-10-18T07:19:55;102131.00;;;15.36;100.00
7052;BME280;3567;52.444;13.556;2022-10-18T07:22:20;102128.28;;;15.36;100.00
7052;BME280;3567;52.444;13.556;2022-10-18T07:24:45;102142.63;;;15.37;100.00
7052;BME280;3567;52.444;13.556;2022-10-18T07:27:11;102144.50;;;15.36;100.00
7052;BME280;3567;52.444;13.556;2022-10-18T07:32:11;102152.50;;;15.43;100.00
7052;BME280;3567;52.444;13.556;2022-10-18T07:34:36;102147.72;;;15.45;100.00
7052;BME280;3567;52.444;13.556;2022-10-18T07:37:02;102158.06;;;15.48;100.00
7052;BME280;3567;52.444;13.556;2022-10-18T07:39:27;102158.44;;;15.52;100.00
7052;BME280;3567;52.444;13.556;2022-10-18T07:41:53;102168.19;;;15.53;100.00
7052;BME280;3567;52.444;13.556;2022-10-18T07:44:18;102172.53;;;15.54;100.00
7052;BME280;3567;52.444;13.556;2022-10-18T07:46:43;102171.47;;;15.55;100.00
7052;BME280;3567;52.444;13.556;2022-10-18T07:49:09;102175.63;;;15.57;100.00
7052;BME280;3567;52.444;13.556;2022-10-18T07:51:34;102179.38;;;15.56;100.00
7052;BME280;3567;52.444;13.556;2022-10-18T07:54:00;102178.31;;;15.57;100.00
7052;BME280;3567;52.444;13.556;2022-10-18T07:56:26;102177.03;;;15.60;100.00
7052;BME280;3567;52.444;13.556;2022-10-18T07:58:54;102180.34;;;15.62;100.00
7052;BME280;3567;52.444;13.556;2022-10-18T08:01:21;102175.56;;;15.64;100.00
7052;BME280;3567;52.444;13.556;2022-10-18T08:03:47;102175.94;;;15.67;100.00
7052;BME280;3567;52.444;13.556;2022-10-18T08:06:15;102163.63;;;15.71;100.00
7052;BME280;3567;52.444;13.556;2022-10-18T08:08:42;102162.56;;;15.73;100.00
7052;BME280;3567;52.444;13.556;2022-10-18T08:11:13;102164.22;;;15.74;100.00
7052;BME280;3567;52.444;13.556;2022-10-18T08:13:39;102163.97;;;15.75;100.00
7052;BME280;3567;52.444;13.556;2022-10-18T08:16:08;102159.78;;;15.79;100.00
7052;BME280;3567;52.444;13.556;2022-10-18T08:18:35;102159.09;;;15.84;100.00
7052;BME280;3567;52.444;13.556;2022-10-18T08:21:05;102154.50;;;15.84;100.00
7052;BME280;3567;52.444;13.556;2022-10-18T08:23:32;102155.91;;;15.87;100.00
7052;BME280;3567;52.444;13.556;2022-10-18T08:26:06;102153.44;;;15.85;100.00
7052;BME280;3567;52.444;13.556;2022-10-18T08:28:31;102149.09;;;15.84;100.00
7052;BME280;3567;52.444;13.556;2022-10-18T08:31:01;102152.03;;;15.83;100.00
7052;BME280;3567;52.444;13.556;2022-10-18T08:33:27;102154.13;;;15.81;100.00
7052;BME280;3567;52.444;13.556;2022-10-18T08:35:57;102153.94;;;15.82;100.00
7052;BME280;3567;52.444;13.556;2022-10-18T08:38:23;102163.28;;;15.80;100.00
7052;BME280;3567;52.444;13.556;2022-10-18T08:40:48;102157.31;;;15.78;100.00
7052;BME280;3567;52.444;13.556;2022-10-18T08:43:34;102152.13;;;15.76;100.00
7052;BME280;3567;52.444;13.556;2022-10-18T08:46:02;102153.16;;;15.75;100.00
7052;BME280;3567;52.444;13.556;2022-10-18T08:48:34;102158.56;;;15.75;100.00
7052;BME280;3567;52.444;13.556;2022-10-18T08:51:03;102159.41;;;15.76;100.00
7052;BME280;3567;52.444;13.556;2022-10-18T08:53:37;102158.66;;;15.68;100.00
7052;BME280;3567;52.444;13.556;2022-10-18T08:56:13;102158.94;;;15.60;100.00
7052;BME280;3567;52.444;13.556;2022-10-18T08:58:41;102155.88;;;15.57;100.00
7052;BME280;3567;52.444;13.556;2022-10-18T09:17:21;102145.09;;;15.38;100.00
7052;BME280;3567;52.444;13.556;2022-10-18T09:22:46;102152.53;;;15.25;100.00
7052;BME280;3567;52.444;13.556;2022-10-18T09:25:34;102163.75;;;15.22;100.00
7052;BME280;3567;52.444;13.556;2022-10-18T09:28:15;102161.97;;;15.15;100.00
7052;BME280;3567;52.444;13.556;2022-10-18T09:36:10;102156.41;;;15.10;100.00
7052;BME280;3567;52.444;13.556;2022-10-18T09:38:44;102151.00;;;15.10;100.00
7052;BME280;3567;52.444;13.556;2022-10-18T09:41:23;102153.94;;;15.09;100.00
7052;BME280;3567;52.444;13.556;2022-10-18T09:44:01;102154.03;;;15.02;100.00
7052;BME280;3567;52.444;13.556;2022-10-18T09:46:32;102155.88;;;15.02;100.00
7052;BME280;3567;52.444;13.556;2022-10-18T09:49:05;102151.75;;;14.99;100.00
7052;BME280;3567;52.444;13.556;2022-10-18T09:51:37;102153.63;;;14.99;100.00
7052;BME280;3567;52.444;13.556;2022-10-18T09:54:32;102152.81;;;14.98;100.00
7052;BME280;3567;52.444;13.556;2022-10-18T09:57:08;102153.25;;;14.95;100.00
7052;BME280;3567;52.444;13.556;2022-10-18T09:59:41;102156.75;;;14.96;100.00
7052;BME280;3567;52.444;13.556;2022-10-18T10:02:18;102154.31;;;14.94;100.00
7052;BME280;3567;52.444;13.556;2022-10-18T10:04:46;102157.00;;;14.94;100.00
7052;BME280;3567;52.444;13.556;2022-10-18T10:07:27;102165.31;;;14.92;100.00
7052;BME280;3567;52.444;13.556;2022-10-18T10:09:57;102159.09;;;14.92;100.00
7052;BME280;3567;52.444;13.556;2022-10-18T10:14:48;102166.97;;;14.93;100.00
7052;BME280;3567;52.444;13.556;2022-10-18T10:17:23;102158.88;;;14.93;100.00
7052;BME280;3567;52.444;13.556;2022-10-18T10:20:00;102160.34;;;14.89;100.00
7052;BME280;3567;52.444;13.556;2022-10-18T10:22:39;102168.69;;;14.88;100.00
7052;BME280;3567;52.444;13.556;2022-10-18T10:25:06;102171.38;;;14.88;100.00
7052;BME280;3567;52.444;13.556;2022-10-18T10:29:58;102163.88;;;14.90;100.00
7052;BME280;3567;52.444;13.556;2022-10-18T10:32:29;102158.47;;;14.90;100.00
7052;BME280;3567;52.444;13.556;2022-10-18T10:34:56;102154.13;;;14.89;100.00
7052;BME280;3567;52.444;13.556;2022-10-18T10:42:36;102144.00;;;14.84;100.00
7052;BME280;3567;52.444;13.556;2022-10-18T10:45:12;102139.44;;;14.85;100.00
7052;BME280;3567;52.444;13.556;2022-10-18T10:47:38;102142.13;;;14.85;100.00
7052;BME280;3567;52.444;13.556;2022-10-18T10:50:10;102138.38;;;14.86;100.00
7052;BME280;3567;52.444;13.556;2022-10-18T10:52:38;102140.06;;;14.87;100.00
7052;BME280;3567;52.444;13.556;2022-10-18T10:55:05;102142.13;;;14.85;100.00
7052;BME280;3567;52.444;13.556;2022-10-18T10:57:42;102125.75;;;14.86;100.00
7052;BME280;3567;52.444;13.556;2022-10-18T11:00:40;102124.47;;;14.89;100.00
7052;BME280;3567;52.444;13.556;2022-10-18T11:03:15;102117.81;;;14.91;100.00
7052;BME280;3567;52.444;13.556;2022-10-18T11:05:47;102107.38;;;14.95;100.00
7052;BME280;3567;52.444;13.556;2022-10-18T11:08:20;102116.25;;;15.02;100.00
7052;BME280;3567;52.444;13.556;2022-10-18T11:10:58;102105.56;;;15.07;100.00
7052;BME280;3567;52.444;13.556;2022-10-18T11:16:13;102097.84;;;15.11;100.00
7052;BME280;3567;52.444;13.556;2022-10-18T11:18:42;102106.19;;;15.09;100.00
7052;BME280;3567;52.444;13.556;2022-10-18T11:21:12;102098.47;;;15.13;100.00
7052;BME280;3567;52.444;13.556;2022-10-18T11:23:41;102097.78;;;15.17;100.00
7052;BME280;3567;52.444;13.556;2022-10-18T11:29:27;102102.28;;;15.24;100.00
7052;BME280;3567;52.444;13.556;2022-10-18T11:35:29;102097.03;;;15.29;100.00
7052;BME280;3567;52.444;13.556;2022-10-18T11:38:05;102107.13;;;15.33;100.00
7052;BME280;3567;52.444;13.556;2022-10-18T11:40:55;102103.19;;;15.36;100.00
7052;BME280;3567;52.444;13.556;2022-10-18T11:43:46;102101.53;;;15.35;100.00
7052;BME280;3567;52.444;13.556;2022-10-18T11:46:39;102106.13;;;15.34;100.00
7052;BME280;3567;52.444;13.556;2022-10-18T11:52:02;102090.41;;;15.43;100.00
7052;BME280;3567;52.444;13.556;2022-10-18T12:00:27;102090.41;;;15.43;100.00
7052;BME280;3567;52.444;13.556;2022-10-18T12:05:36;102094.03;;;15.37;100.00
7052;BME280;3567;52.444;13.556;2022-10-18T12:08:10;102090.06;;;15.39;100.00
7052;BME280;3567;52.444;13.556;2022-10-18T12:10:40;102089.59;;;15.42;100.00
7052;BME280;3567;52.444;13.556;2022-10-18T12:13:14;102089.97;;;15.46;100.00
7052;BME280;3567;52.444;13.556;2022-10-18T12:15:41;102078.09;;;15.47;100.00
7052;BME280;3567;52.444;13.556;2022-10-18T12:18:14;102080.44;;;15.43;100.00
7052;BME280;3567;52.444;13.556;2022-10-18T12:20:43;102073.63;;;15.41;100.00
7052;BME280;3567;52.444;13.556;2022-10-18T12:23:21;102066.34;;;15.41;100.00
7052;BME280;3567;52.444;13.556;2022-10-18T12:25:52;102073.16;;;15.44;100.00
7052;BME280;3567;52.444;13.556;2022-10-18T12:28:33;102075.84;;;15.44;100.00
7052;BME280;3567;52.444;13.556;2022-10-18T12:33:49;102082.31;;;15.43;100.00
7052;BME280;3567;52.444;13.556;2022-10-18T12:38:55;102078.69;;;15.49;100.00
7052;BME280;3567;52.444;13.556;2022-10-18T12:41:31;102082.81;;;15.52;100.00
7052;BME280;3567;52.444;13.556;2022-10-18T12:44:18;102075.69;;;15.57;100.00
7052;BME280;3567;52.444;13.556;2022-10-18T12:46:50;102075.00;;;15.62;100.00
7052;BME280;3567;52.444;13.556;2022-10-18T12:49:21;102068.13;;;15.66;100.00
7052;BME280;3567;52.444;13.556;2022-10-18T12:51:55;102069.53;;;15.68;100.00
7052;BME280;3567;52.444;13.556;2022-10-18T12:54:26;102063.31;;;15.68;100.00
7052;BME280;3567;52.444;13.556;2022-10-18T12:56:53;102065.75;;;15.69;100.00
7052;BME280;3567;52.444;13.556;2022-10-18T13:09:38;102070.09;;;15.70;100.00
7052;BME280;3567;52.444;13.556;2022-10-18T13:30:18;102068.88;;;15.85;100.00
7052;BME280;3567;52.444;13.556;2022-10-18T13:32:52;102067.09;;;15.79;100.00
7052;BME280;3567;52.444;13.556;2022-10-18T13:41:20;102062.41;;;15.86;100.00
7052;BME280;3567;52.444;13.556;2022-10-18T13:52:24;102060.47;;;16.05;100.00
7052;BME280;3567;52.444;13.556;2022-10-18T14:03:28;102064.69;;;16.01;100.00
7052;BME280;3567;52.444;13.556;2022-10-18T14:08:33;102071.59;;;16.08;100.00
7052;BME280;3567;52.444;13.556;2022-10-18T14:11:10;102074.78;;;16.05;100.00
7052;BME280;3567;52.444;13.556;2022-10-18T14:16:33;102083.09;;;15.92;100.00
7052;BME280;3567;52.444;13.556;2022-10-18T14:22:11;102083.47;;;15.95;100.00
7052;BME280;3567;52.444;13.556;2022-10-18T14:24:43;102087.59;;;15.98;100.00
7052;BME280;3567;52.444;13.556;2022-10-18T14:27:16;102086.19;;;16.07;100.00
7052;BME280;3567;52.444;13.556;2022-10-18T14:29:42;102095.03;;;16.14;100.00
7052;BME280;3567;52.444;13.556;2022-10-18T14:34:46;102099.59;;;16.14;100.00
7052;BME280;3567;52.444;13.556;2022-10-18T14:37:34;102098.75;;;16.13;100.00
7052;BME280;3567;52.444;13.556;2022-10-18T14:40:02;102098.63;;;16.08;100.00
7052;BME280;3567;52.444;13.556;2022-10-18T14:42:28;102101.34;;;16.08;100.00
7052;BME280;3567;52.444;13.556;2022-10-18T14:44:54;102106.03;;;16.01;100.00
7052;BME280;3567;52.444;13.556;2022-10-18T14:47:25;102100.88;;;16.00;100.00
7052;BME280;3567;52.444;13.556;2022-10-18T14:49:51;102099.22;;;15.98;100.00
7052;BME280;3567;52.444;13.556;2022-10-18T14:52:29;102099.91;;;15.94;100.00
7052;BME280;3567;52.444;13.556;2022-10-18T14:54:57;102098.13;;;15.88;100.00
7052;BME280;3567;52.444;13.556;2022-10-18T14:57:29;102099.66;;;15.84;100.00
7052;BME280;3567;52.444;13.556;2022-10-18T14:59:58;102101.63;;;15.77;100.00
7052;BME280;3567;52.444;13.556;2022-10-18T15:02:27;102094.41;;;15.70;100.00
7052;BME280;3567;52.444;13.556;2022-10-18T15:05:08;102091.81;;;15.64;100.00
7052;BME280;3567;52.444;13.556;2022-10-18T15:07:34;102089.13;;;15.45;100.00
7052;BME280;3567;52.444;13.556;2022-10-18T15:10:01;102088.84;;;15.35;100.00
7052;BME280;3567;52.444;13.556;2022-10-18T15:12:28;102087.88;;;15.30;100.00
7052;BME280;3567;52.444;13.556;2022-10-18T15:14:56;102091.50;;;15.24;100.00
7052;BME280;3567;52.444;13.556;2022-10-18T15:17:27;102086.16;;;15.17;100.00
7052;BME280;3567;52.444;13.556;2022-10-18T15:20:02;102075.44;;;15.10;100.00
7052;BME280;3567;52.444;13.556;2022-10-18T15:22:30;102076.34;;;15.04;100.00
7052;BME280;3567;52.444;13.556;2022-10-18T15:25:25;102085.94;;;15.00;100.00
7052;BME280;3567;52.444;13.556;2022-10-18T15:27:54;102079.81;;;14.93;100.00
7052;BME280;3567;52.444;13.556;2022-10-18T15:30:54;102085.44;;;14.91;100.00
7052;BME280;3567;52.444;13.556;2022-10-18T15:33:21;102093.72;;;14.90;100.00
7052;BME280;3567;52.444;13.556;2022-10-18T15:35:47;102088.19;;;14.85;100.00
7052;BME280;3567;52.444;13.556;2022-10-18T15:38:27;102085.47;;;14.85;100.00